Time;durP1;ratioP1;P1;durP2;ratioP2;P2;SDS_P1;SDS_P2;PMS_P1;PMS_P2;Temp;Humidity;BMP_temperature;BMP_pressure;BME280_temperature;BME280_humidity;BME280_pressure;Samples;Min_cycle;Max_cycle;Signal;HPM_P1;HPM_P2
2023/01/17 00:02:24;;;;;;;;;;;;;;;2.85;77.76;95547.72;7384126;19;19951;-85
2023/01/17 00:10:26;;;;;;;;;;;;;;;2.61;77.53;95557.41;7382591;19;20347;-85
2023/01/17 00:12:57;;;;;;;;;;;;;;;2.67;77.46;95557.69;7382766;19;19917;-83
2023/01/17 00:15:43;;;;;;;;;;;;;;;2.67;77.07;95566.31;7380503;19;21083;-85
2023/01/17 00:18:24;;;;;;;;;;;;;;;2.69;77.12;95571.38;7382850;19;20293;-84
2023/01/17 00:26:01;;;;;;;;;;;;;;;2.93;76.72;95567.75;7377729;19;19922;-86
2023/01/17 00:26:25;;;;;;;;;;;;;;;2.87;76.69;95566.66;7377393;19;19929;-86
2023/01/17 01:35:45;;;;;;;;;;;;;;;2.85;74.57;95662.63;7370489;19;20363;-85
2023/01/17 01:38:12;;;;;;;;;;;;;;;2.99;74.15;95656.63;7375028;19;19923;-85
2023/01/17 01:40:43;;;;;;;;;;;;;;;2.95;74.18;95662.38;7374522;19;19922;-86
2023/01/17 01:43:10;;;;;;;;;;;;;;;2.97;74.05;95665.63;7370442;19;19929;-85
2023/01/17 01:45:36;;;;;;;;;;;;;;;2.80;73.59;95660.53;7372934;19;19953;-85
2023/01/17 01:48:05;;;;;;;;;;;;;;;2.81;73.61;95666.56;7372394;19;19927;-86
2023/01/17 01:50:34;;;;;;;;;;;;;;;2.81;73.62;95664.75;7375752;19;22460;-86
2023/01/17 01:53:02;;;;;;;;;;;;;;;2.96;72.96;95661.41;7378546;19;19915;-86
2023/01/17 01:55:30;;;;;;;;;;;;;;;2.96;73.24;95662.19;7376014;19;19922;-86
2023/01/17 01:57:57;;;;;;;;;;;;;;;2.96;72.81;95664.81;7377096;19;19933;-86
2023/01/17 02:00:32;;;;;;;;;;;;;;;3.06;72.70;95667.19;7377728;19;19922;-86
2023/01/17 02:03:04;;;;;;;;;;;;;;;3.17;72.54;95660.75;7377610;19;20257;-86
2023/01/17 02:05:31;;;;;;;;;;;;;;;2.96;72.92;95658.78;7376162;19;20479;-86
2023/01/17 02:08:00;;;;;;;;;;;;;;;2.83;73.01;95664.59;7375293;19;19922;-86
2023/01/17 02:10:27;;;;;;;;;;;;;;;2.97;73.14;95661.22;7374043;19;19919;-86
2023/01/17 02:12:53;;;;;;;;;;;;;;;3.14;72.97;95661.09;7379188;19;20260;-85
2023/01/17 02:15:21;;;;;;;;;;;;;;;3.20;72.93;95657.78;7371853;19;19915;-85
2023/01/17 02:18:03;;;;;;;;;;;;;;;3.21;72.27;95656.78;7370481;19;19918;-85
2023/01/17 02:20:36;;;;;;;;;;;;;;;3.39;72.49;95641.59;7370587;19;19911;-86
2023/01/17 02:23:09;;;;;;;;;;;;;;;3.07;72.53;95646.13;7373568;19;20256;-86
2023/01/17 02:25:35;;;;;;;;;;;;;;;3.20;73.03;95647.31;7374605;19;20364;-86
2023/01/17 02:28:17;;;;;;;;;;;;;;;3.26;72.92;95644.00;7372632;19;20002;-86
2023/01/17 02:30:50;;;;;;;;;;;;;;;3.39;73.10;95643.38;7377990;19;19926;-85
2023/01/17 02:33:28;;;;;;;;;;;;;;;3.04;73.48;95646.47;7372192;19;20259;-86
2023/01/17 02:36:03;;;;;;;;;;;;;;;3.14;73.72;95643.63;7372594;19;19936;-86
2023/01/17 02:38:32;;;;;;;;;;;;;;;3.12;72.74;95637.75;7374724;19;19943;-85
2023/01/17 02:41:00;;;;;;;;;;;;;;;3.13;73.31;95631.53;7377100;19;19926;-86
2023/01/17 02:43:26;;;;;;;;;;;;;;;3.22;73.81;95632.28;7372378;19;20378;-86
2023/01/17 02:45:53;;;;;;;;;;;;;;;3.16;73.47;95636.44;7374183;19;20300;-85
2023/01/17 02:48:21;;;;;;;;;;;;;;;3.26;73.95;95641.38;7369290;19;19922;-86
2023/01/17 02:51:03;;;;;;;;;;;;;;;3.24;73.72;95640.78;7369328;19;19918;-86
2023/01/17 02:53:32;;;;;;;;;;;;;;;3.31;73.11;95641.66;7374246;19;19922;-86
2023/01/17 02:56:01;;;;;;;;;;;;;;;3.33;72.72;95642.31;7372937;19;20293;-86
2023/01/17 02:58:46;;;;;;;;;;;;;;;3.26;72.76;95639.56;7369972;19;19926;-86
2023/01/17 03:01:16;;;;;;;;;;;;;;;3.29;73.00;95641.03;7370305;19;20399;-86
2023/01/17 03:04:02;;;;;;;;;;;;;;;3.33;73.19;95638.88;7373534;19;20272;-86
2023/01/17 03:06:49;;;;;;;;;;;;;;;3.12;73.79;95639.56;7372023;19;19922;-86
2023/01/17 03:09:16;;;;;;;;;;;;;;;3.43;73.52;95632.41;7372580;19;19925;-86
2023/01/17 03:11:42;;;;;;;;;;;;;;;3.55;73.17;95621.50;7372641;19;20597;-85
2023/01/17 03:14:09;;;;;;;;;;;;;;;3.49;73.15;95625.66;7368363;19;21841;-86
2023/01/17 03:16:36;;;;;;;;;;;;;;;3.46;73.00;95631.25;7374287;19;20560;-86
2023/01/17 03:19:02;;;;;;;;;;;;;;;3.41;73.41;95641.41;7371543;19;20340;-86
2023/01/17 03:21:29;;;;;;;;;;;;;;;3.38;74.17;95642.59;7373752;19;19921;-86
2023/01/17 03:23:56;;;;;;;;;;;;;;;3.33;73.69;95642.31;7372053;19;20376;-86
2023/01/17 03:26:22;;;;;;;;;;;;;;;3.34;73.84;95649.16;7371041;19;20006;-85
2023/01/17 03:28:49;;;;;;;;;;;;;;;3.42;74.26;95646.47;7372743;19;19918;-85
2023/01/17 03:31:16;;;;;;;;;;;;;;;3.12;75.33;95650.00;7373441;19;19945;-86
2023/01/17 03:33:43;;;;;;;;;;;;;;;3.18;74.88;95650.09;7372103;19;19925;-85
2023/01/17 03:36:10;;;;;;;;;;;;;;;3.26;74.81;95655.25;7377550;19;19919;-86
2023/01/17 03:38:37;;;;;;;;;;;;;;;3.29;74.59;95654.91;7378846;19;19918;-86
2023/01/17 03:41:03;;;;;;;;;;;;;;;3.13;75.10;95651.63;7378750;19;19919;-85
2023/01/17 03:43:30;;;;;;;;;;;;;;;3.21;75.15;95651.53;7379848;19;19915;-86
2023/01/17 03:46:04;;;;;;;;;;;;;;;3.29;74.65;95654.09;7383602;19;19914;-86
2023/01/17 03:48:30;;;;;;;;;;;;;;;3.36;74.12;95659.44;7381600;19;19927;-85
2023/01/17 03:50:57;;;;;;;;;;;;;;;3.33;74.50;95657.19;7381196;19;19914;-86
2023/01/17 03:53:24;;;;;;;;;;;;;;;3.20;74.97;95661.19;7375637;19;19918;-85
2023/01/17 03:55:50;;;;;;;;;;;;;;;3.00;75.98;95663.50;7379207;19;19922;-84
2023/01/17 03:58:17;;;;;;;;;;;;;;;2.94;76.54;95668.59;7374737;19;19914;-84
2023/01/17 04:00:44;;;;;;;;;;;;;;;2.80;77.97;95670.16;7379508;19;20274;-84
2023/01/17 04:03:10;;;;;;;;;;;;;;;2.47;79.21;95672.94;7376426;19;19922;-86
2023/01/17 04:05:37;;;;;;;;;;;;;;;2.70;79.18;95680.00;7382388;19;19918;-86
2023/01/17 04:08:05;;;;;;;;;;;;;;;2.70;79.15;95669.56;7371893;19;19915;-85
2023/01/17 04:10:32;;;;;;;;;;;;;;;2.51;79.08;95666.41;7379489;19;19915;-86
2023/01/17 04:12:59;;;;;;;;;;;;;;;2.64;79.17;95666.66;7376508;19;19923;-86
2023/01/17 04:15:25;;;;;;;;;;;;;;;2.73;77.95;95669.22;7374492;19;19925;-85
2023/01/17 04:17:52;;;;;;;;;;;;;;;2.40;77.70;95651.97;7376735;19;19915;-85
2023/01/17 04:20:28;;;;;;;;;;;;;;;2.50;77.41;95662.19;7377239;19;19945;-86
2023/01/17 04:22:55;;;;;;;;;;;;;;;2.37;77.33;95654.09;7374002;19;20268;-86
2023/01/17 04:25:22;;;;;;;;;;;;;;;2.36;77.28;95655.88;7376659;19;19930;-85
2023/01/17 04:27:48;;;;;;;;;;;;;;;2.55;77.49;95652.03;7379128;19;19923;-86
2023/01/17 04:30:15;;;;;;;;;;;;;;;2.63;76.90;95653.78;7378154;19;19919;-86
2023/01/17 04:32:41;;;;;;;;;;;;;;;2.73;76.92;95654.38;7377273;19;19930;-86
2023/01/17 04:35:08;;;;;;;;;;;;;;;2.71;76.68;95658.94;7381275;19;19917;-86
2023/01/17 04:37:36;;;;;;;;;;;;;;;2.71;76.34;95658.94;7380908;19;19918;-86
2023/01/17 04:40:14;;;;;;;;;;;;;;;2.69;76.39;95662.75;7383038;19;20357;-86
2023/01/17 04:42:43;;;;;;;;;;;;;;;2.49;76.52;95668.38;7376976;19;20531;-86
2023/01/17 04:45:10;;;;;;;;;;;;;;;2.45;76.72;95669.72;7377142;19;19948;-86
2023/01/17 04:47:36;;;;;;;;;;;;;;;2.38;76.91;95674.00;7374646;19;20317;-86
2023/01/17 04:50:03;;;;;;;;;;;;;;;2.38;77.30;95668.78;7380228;19;19911;-86
2023/01/17 04:52:30;;;;;;;;;;;;;;;2.43;77.38;95679.50;7380999;19;20244;-86
2023/01/17 04:54:56;;;;;;;;;;;;;;;2.42;77.44;95673.50;7378395;19;19923;-85
2023/01/17 04:57:24;;;;;;;;;;;;;;;2.44;77.50;95670.69;7379383;19;19932;-86
2023/01/17 04:59:52;;;;;;;;;;;;;;;2.54;77.43;95676.50;7380875;19;19911;-86
2023/01/17 05:02:19;;;;;;;;;;;;;;;2.56;77.21;95676.34;7381238;19;19918;-86
2023/01/17 05:04:46;;;;;;;;;;;;;;;2.48;78.25;95671.19;7379284;19;19923;-85
2023/01/17 05:07:12;;;;;;;;;;;;;;;2.71;78.49;95673.78;7379912;19;19923;-86
2023/01/17 05:09:39;;;;;;;;;;;;;;;2.84;77.47;95680.09;7381327;19;20425;-85
2023/01/17 05:12:06;;;;;;;;;;;;;;;2.69;77.26;95673.19;7378270;19;19923;-87
2023/01/17 05:14:33;;;;;;;;;;;;;;;2.63;77.88;95675.50;7379831;19;19922;-85
2023/01/17 05:17:01;;;;;;;;;;;;;;;2.71;77.63;95672.00;7381822;19;19937;-86
2023/01/17 05:19:28;;;;;;;;;;;;;;;2.42;78.11;95672.66;7378455;19;19923;-86
2023/01/17 05:21:55;;;;;;;;;;;;;;;2.36;78.40;95661.09;7376797;19;19957;-85
2023/01/17 05:24:21;;;;;;;;;;;;;;;2.36;78.53;95670.75;7375255;19;19918;-86
2023/01/17 05:26:53;;;;;;;;;;;;;;;2.34;77.76;95664.88;7378627;19;19929;-86
2023/01/17 05:29:25;;;;;;;;;;;;;;;2.23;77.43;95665.25;7380311;19;19922;-86
2023/01/17 05:31:51;;;;;;;;;;;;;;;2.10;78.47;95671.00;7380160;19;19926;-86
2023/01/17 05:34:26;;;;;;;;;;;;;;;2.23;77.96;95654.81;7379504;19;19938;-86
2023/01/17 05:36:53;;;;;;;;;;;;;;;2.25;77.70;95652.88;7379381;19;19938;-86
2023/01/17 05:39:22;;;;;;;;;;;;;;;2.22;77.33;95651.41;7374994;19;19928;-85
2023/01/17 05:41:49;;;;;;;;;;;;;;;2.14;77.46;95652.25;7379710;19;19928;-85
2023/01/17 05:44:16;;;;;;;;;;;;;;;2.09;77.30;95651.97;7378872;19;19918;-86
2023/01/17 05:46:42;;;;;;;;;;;;;;;2.04;77.44;95658.66;7376601;19;19935;-86
2023/01/17 05:49:09;;;;;;;;;;;;;;;2.07;77.77;95653.91;7378407;19;19998;-85
2023/01/17 05:51:38;;;;;;;;;;;;;;;2.05;77.34;95653.25;7376138;19;20333;-85
2023/01/17 05:54:05;;;;;;;;;;;;;;;2.06;76.81;95657.50;7380858;19;19930;-85
2023/01/17 05:56:32;;;;;;;;;;;;;;;2.00;76.98;95652.16;7372586;19;20242;-85
2023/01/17 05:58:58;;;;;;;;;;;;;;;1.94;76.66;95648.44;7380139;19;20388;-85
2023/01/17 06:01:25;;;;;;;;;;;;;;;1.91;76.38;95648.78;7377132;19;19918;-85
2023/01/17 06:03:52;;;;;;;;;;;;;;;1.84;76.42;95640.78;7379070;19;20337;-85
2023/01/17 06:06:19;;;;;;;;;;;;;;;1.81;76.37;95637.72;7378261;19;19990;-84
2023/01/17 06:08:45;;;;;;;;;;;;;;;1.77;76.39;95636.44;7385808;19;19974;-84
2023/01/17 06:11:12;;;;;;;;;;;;;;;1.73;76.17;95631.53;7374591;19;19910;-84
2023/01/17 06:13:39;;;;;;;;;;;;;;;1.72;76.27;95639.56;7376248;19;19919;-85
2023/01/17 06:16:05;;;;;;;;;;;;;;;1.68;76.27;95638.25;7376185;19;19914;-85
2023/01/17 06:18:32;;;;;;;;;;;;;;;1.66;76.19;95628.00;7378160;19;19918;-84
2023/01/17 06:20:59;;;;;;;;;;;;;;;1.59;75.91;95624.44;7379166;19;19919;-85
2023/01/17 06:23:25;;;;;;;;;;;;;;;1.62;75.90;95620.69;7374264;19;19918;-84
2023/01/17 06:25:52;;;;;;;;;;;;;;;1.61;75.61;95612.06;7374522;19;19919;-84
2023/01/17 06:28:19;;;;;;;;;;;;;;;1.60;76.17;95605.22;7368589;19;19918;-84
2023/01/17 06:30:46;;;;;;;;;;;;;;;1.53;75.57;95602.47;7374041;19;20696;-84
2023/01/17 06:33:13;;;;;;;;;;;;;;;1.56;75.86;95596.13;7367720;19;19922;-84
2023/01/17 06:35:45;;;;;;;;;;;;;;;1.60;75.75;95599.19;7367533;19;19914;-84
2023/01/17 06:38:12;;;;;;;;;;;;;;;1.57;75.52;95596.91;7365435;19;19922;-84
2023/01/17 06:40:38;;;;;;;;;;;;;;;1.52;75.40;95597.41;7372238;19;19930;-84
2023/01/17 06:43:05;;;;;;;;;;;;;;;1.49;75.34;95593.34;7371552;19;19926;-84
2023/01/17 06:45:32;;;;;;;;;;;;;;;1.45;75.54;95592.09;7368766;19;19930;-84
2023/01/17 06:47:59;;;;;;;;;;;;;;;1.42;75.63;95604.59;7372655;19;19925;-84
2023/01/17 06:50:26;;;;;;;;;;;;;;;1.36;75.76;95603.47;7372567;19;19922;-84
2023/01/17 06:52:53;;;;;;;;;;;;;;;1.24;75.95;95612.66;7371773;19;19946;-84
2023/01/17 06:55:20;;;;;;;;;;;;;;;1.28;75.86;95611.31;7374829;19;20603;-84
2023/01/17 06:57:48;;;;;;;;;;;;;;;1.20;76.41;95606.13;7372637;19;19933;-84
2023/01/17 07:00:15;;;;;;;;;;;;;;;1.25;76.28;95615.06;7373070;19;19926;-84
2023/01/17 07:02:46;;;;;;;;;;;;;;;1.23;76.09;95614.41;7375822;19;19919;-84
2023/01/17 07:05:15;;;;;;;;;;;;;;;1.22;75.99;95612.81;7372133;19;19915;-84
2023/01/17 07:07:42;;;;;;;;;;;;;;;1.25;75.74;95607.25;7376597;19;19922;-84
2023/01/17 07:10:09;;;;;;;;;;;;;;;1.25;75.84;95604.66;7375176;19;19923;-84
2023/01/17 07:12:35;;;;;;;;;;;;;;;1.25;75.80;95604.66;7376361;19;19922;-84
2023/01/17 07:15:03;;;;;;;;;;;;;;;1.31;76.73;95600.56;7372495;19;19922;-83
2023/01/17 07:17:29;;;;;;;;;;;;;;;1.35;76.80;95598.47;7366337;19;19915;-83
2023/01/17 07:19:56;;;;;;;;;;;;;;;1.45;76.68;95596.44;7372545;19;19914;-83
2023/01/17 07:22:22;;;;;;;;;;;;;;;1.46;76.47;95595.50;7373573;19;19919;-83
2023/01/17 07:24:49;;;;;;;;;;;;;;;1.52;76.17;95590.41;7372454;19;20399;-82
2023/01/17 07:27:15;;;;;;;;;;;;;;;1.51;75.81;95590.59;7370637;19;19923;-84
2023/01/17 07:29:42;;;;;;;;;;;;;;;1.45;75.63;95586.03;7379470;19;19915;-84
2023/01/17 07:32:09;;;;;;;;;;;;;;;1.42;75.33;95579.41;7363283;19;19921;-84
2023/01/17 07:34:36;;;;;;;;;;;;;;;1.42;75.52;95578.56;7366084;19;19927;-84
2023/01/17 07:37:03;;;;;;;;;;;;;;;1.38;75.88;95570.28;7373113;19;19929;-84
2023/01/17 07:39:29;;;;;;;;;;;;;;;1.35;75.63;95575.81;7372248;19;19934;-84
2023/01/17 07:41:56;;;;;;;;;;;;;;;1.33;75.18;95572.56;7373276;19;19926;-84
2023/01/17 07:44:23;;;;;;;;;;;;;;;1.33;75.59;95582.19;7372888;19;20686;-84
2023/01/17 07:46:49;;;;;;;;;;;;;;;1.44;76.28;95568.78;7374365;19;19926;-84
2023/01/17 07:49:16;;;;;;;;;;;;;;;1.51;75.70;95569.75;7371701;19;20345;-83
2023/01/17 07:51:42;;;;;;;;;;;;;;;1.62;76.32;95571.97;7371541;19;20633;-82
2023/01/17 07:54:10;;;;;;;;;;;;;;;1.77;76.22;95566.88;7371171;19;19918;-83
2023/01/17 07:56:37;;;;;;;;;;;;;;;1.81;75.78;95560.34;7374233;19;19918;-83
2023/01/17 07:59:04;;;;;;;;;;;;;;;1.83;74.98;95560.16;7374579;19;19910;-84
2023/01/17 08:01:30;;;;;;;;;;;;;;;1.84;74.87;95565.19;7377850;19;20345;-83
2023/01/17 08:03:57;;;;;;;;;;;;;;;1.75;75.28;95559.22;7374040;19;19948;-84
2023/01/17 08:06:24;;;;;;;;;;;;;;;1.75;75.07;95556.63;7371832;19;19943;-83
2023/01/17 08:08:53;;;;;;;;;;;;;;;1.88;74.78;95552.66;7371033;19;19915;-83
2023/01/17 08:11:20;;;;;;;;;;;;;;;1.88;74.01;95553.47;7373502;19;19933;-83
2023/01/17 08:13:47;;;;;;;;;;;;;;;2.02;74.46;95557.13;7373102;19;19922;-84
2023/01/17 08:16:14;;;;;;;;;;;;;;;2.08;73.66;95556.47;7372264;19;19921;-84
2023/01/17 08:18:40;;;;;;;;;;;;;;;2.08;73.77;95560.84;7375619;19;20463;-84
2023/01/17 08:21:14;;;;;;;;;;;;;;;2.02;74.41;95567.56;7378656;19;19923;-84
2023/01/17 08:23:40;;;;;;;;;;;;;;;2.11;74.22;95563.13;7380823;19;19925;-84
2023/01/17 08:26:07;;;;;;;;;;;;;;;2.07;73.77;95557.44;7379341;19;19957;-83
2023/01/17 08:28:33;;;;;;;;;;;;;;;2.25;74.21;95561.56;7381889;19;19978;-83
2023/01/17 08:31:07;;;;;;;;;;;;;;;2.34;74.28;95563.13;7379264;19;19929;-84
2023/01/17 08:33:35;;;;;;;;;;;;;;;2.33;74.72;95564.13;7380290;19;19918;-83
2023/01/17 08:36:02;;;;;;;;;;;;;;;2.46;74.86;95566.16;7376371;19;20726;-82
2023/01/17 08:38:28;;;;;;;;;;;;;;;2.35;75.23;95573.41;7380833;19;19915;-83
2023/01/17 08:40:58;;;;;;;;;;;;;;;2.06;75.87;95568.84;7382254;19;19934;-83
2023/01/17 08:43:25;;;;;;;;;;;;;;;2.06;76.28;95566.25;7382654;19;19925;-82
2023/01/17 08:45:54;;;;;;;;;;;;;;;2.15;76.16;95562.59;7384947;19;19922;-83
2023/01/17 08:48:23;;;;;;;;;;;;;;;2.13;76.10;95566.34;7379506;19;21543;-84
2023/01/17 08:50:50;;;;;;;;;;;;;;;2.12;76.53;95562.94;7385361;19;21063;-83
2023/01/17 08:53:20;;;;;;;;;;;;;;;2.20;76.58;95562.09;7384197;19;19910;-83
2023/01/17 08:55:47;;;;;;;;;;;;;;;2.36;75.93;95558.56;7385800;19;19940;-82
2023/01/17 08:58:13;;;;;;;;;;;;;;;2.41;75.73;95564.06;7378354;19;19921;-82
2023/01/17 09:00:40;;;;;;;;;;;;;;;2.46;75.16;95563.53;7388276;19;20004;-82
2023/01/17 09:03:09;;;;;;;;;;;;;;;2.60;75.44;95565.38;7385809;19;20290;-83
2023/01/17 09:05:36;;;;;;;;;;;;;;;2.69;74.86;95553.09;7382110;19;19917;-83
2023/01/17 09:08:03;;;;;;;;;;;;;;;2.82;75.06;95558.53;7380424;19;19923;-83
2023/01/17 09:10:29;;;;;;;;;;;;;;;2.82;74.64;95554.13;7381413;19;21371;-84
2023/01/17 09:12:56;;;;;;;;;;;;;;;3.01;74.32;95555.41;7382617;19;19923;-83
2023/01/17 09:15:23;;;;;;;;;;;;;;;3.31;74.13;95547.59;7378422;19;19922;-84
2023/01/17 09:17:50;;;;;;;;;;;;;;;3.19;72.72;95547.25;7385304;19;19929;-83
2023/01/17 09:20:16;;;;;;;;;;;;;;;3.13;72.66;95550.56;7381111;19;19918;-83
2023/01/17 09:22:43;;;;;;;;;;;;;;;3.15;72.53;95551.19;7382296;19;19922;-83
2023/01/17 09:25:11;;;;;;;;;;;;;;;2.97;72.84;95559.34;7382856;19;20323;-82
2023/01/17 09:27:38;;;;;;;;;;;;;;;3.06;72.83;95550.47;7384214;19;19922;-85
2023/01/17 09:30:04;;;;;;;;;;;;;;;3.08;72.75;95543.28;7381213;19;20684;-84
2023/01/17 09:32:31;;;;;;;;;;;;;;;3.04;72.85;95542.00;7381434;19;19918;-84
2023/01/17 09:34:59;;;;;;;;;;;;;;;3.12;72.30;95543.72;7378136;19;20276;-84
2023/01/17 09:37:26;;;;;;;;;;;;;;;3.18;72.51;95534.34;7377773;19;19922;-82
2023/01/17 09:39:52;;;;;;;;;;;;;;;3.21;72.38;95526.16;7380563;19;19925;-81
2023/01/17 09:42:20;;;;;;;;;;;;;;;3.28;72.50;95529.66;7384406;19;19974;-80
2023/01/17 09:44:50;;;;;;;;;;;;;;;3.29;71.44;95528.66;7382618;19;19982;-79
2023/01/17 09:47:23;;;;;;;;;;;;;;;3.48;70.52;95522.09;7376014;19;20007;-82
2023/01/17 09:49:49;;;;;;;;;;;;;;;3.64;70.74;95513.25;7379675;19;19922;-81
2023/01/17 09:52:17;;;;;;;;;;;;;;;3.77;70.87;95517.84;7375802;19;19914;-82
2023/01/17 09:54:44;;;;;;;;;;;;;;;3.65;69.44;95525.31;7383100;19;19921;-81
2023/01/17 09:57:29;;;;;;;;;;;;;;;3.74;67.51;95521.63;7375644;19;19919;-82
2023/01/17 10:00:00;;;;;;;;;;;;;;;3.97;67.96;95511.00;7376605;19;19918;-81
2023/01/17 10:02:44;;;;;;;;;;;;;;;3.93;66.90;95521.03;7377017;19;19939;-81
2023/01/17 10:05:30;;;;;;;;;;;;;;;4.23;66.34;95515.69;7374780;19;20234;-82
2023/01/17 10:08:03;;;;;;;;;;;;;;;4.36;66.67;95515.84;7377417;19;19959;-81
2023/01/17 10:10:34;;;;;;;;;;;;;;;4.45;65.57;95508.69;7374071;19;19962;-82
2023/01/17 10:13:23;;;;;;;;;;;;;;;4.70;64.73;95513.50;7377549;19;19922;-82
2023/01/17 10:16:02;;;;;;;;;;;;;;;5.00;63.23;95506.28;7379593;19;19926;-85
2023/01/17 10:18:38;;;;;;;;;;;;;;;5.18;62.02;95500.53;7373430;19;19940;-82
2023/01/17 10:21:09;;;;;;;;;;;;;;;5.35;61.19;95503.69;7373221;19;19925;-82
2023/01/17 10:23:41;;;;;;;;;;;;;;;5.44;62.20;95499.88;7376178;19;19923;-82
2023/01/17 10:26:14;;;;;;;;;;;;;;;5.30;59.89;95492.97;7376657;19;19919;-83
2023/01/17 10:28:45;;;;;;;;;;;;;;;5.41;60.53;95487.16;7376737;19;19925;-83
2023/01/17 10:31:17;;;;;;;;;;;;;;;5.12;57.78;95482.97;7377859;19;19918;-84
2023/01/17 10:33:51;;;;;;;;;;;;;;;5.19;60.64;95492.50;7381241;19;19926;-84
2023/01/17 10:36:23;;;;;;;;;;;;;;;5.25;61.08;95483.06;7376528;19;20266;-84
2023/01/17 10:38:50;;;;;;;;;;;;;;;5.30;58.58;95485.91;7380302;19;19923;-84
2023/01/17 10:41:36;;;;;;;;;;;;;;;5.15;57.43;95478.16;7375873;19;20436;-85
2023/01/17 10:44:14;;;;;;;;;;;;;;;5.26;59.50;95476.78;7373409;19;19922;-82
2023/01/17 10:46:42;;;;;;;;;;;;;;;5.19;57.15;95473.34;7375058;19;19923;-82
2023/01/17 10:49:13;;;;;;;;;;;;;;;5.56;57.78;95473.94;7381273;19;19918;-85
2023/01/17 10:51:48;;;;;;;;;;;;;;;5.85;57.18;95465.75;7379285;19;19919;-85
2023/01/17 10:54:22;;;;;;;;;;;;;;;5.75;60.68;95470.56;7372522;19;19919;-83
2023/01/17 10:56:48;;;;;;;;;;;;;;;6.01;57.84;95461.19;7372528;19;19921;-85
2023/01/17 10:59:16;;;;;;;;;;;;;;;5.51;58.64;95461.41;7372889;19;20570;-83
2023/01/17 11:01:43;;;;;;;;;;;;;;;5.95;58.00;95460.19;7375311;19;19986;-83
2023/01/17 11:04:30;;;;;;;;;;;;;;;5.80;58.20;95452.44;7375662;19;19918;-83
2023/01/17 11:07:17;;;;;;;;;;;;;;;5.54;58.17;95452.34;7376773;19;19915;-83
2023/01/17 11:09:44;;;;;;;;;;;;;;;5.46;57.63;95453.31;7375245;19;19923;-83
2023/01/17 11:12:25;;;;;;;;;;;;;;;5.58;58.02;95450.94;7374457;19;19998;-82
2023/01/17 11:14:52;;;;;;;;;;;;;;;6.05;57.11;95450.09;7373944;19;19918;-83
2023/01/17 11:17:19;;;;;;;;;;;;;;;5.41;55.69;95456.50;7374476;19;22610;-83
2023/01/17 11:19:50;;;;;;;;;;;;;;;6.20;57.35;95449.09;7373080;19;19919;-83
2023/01/17 11:22:16;;;;;;;;;;;;;;;5.87;55.08;95455.88;7372745;19;19919;-83
2023/01/17 11:24:47;;;;;;;;;;;;;;;6.50;56.44;95457.41;7379455;19;19919;-82
2023/01/17 11:27:23;;;;;;;;;;;;;;;6.43;53.55;95451.38;7373860;19;19922;-83
2023/01/17 11:30:00;;;;;;;;;;;;;;;6.27;54.52;95440.25;7380448;19;19922;-83
2023/01/17 11:32:31;;;;;;;;;;;;;;;5.91;53.25;95422.19;7377230;19;19915;-83
2023/01/17 11:35:03;;;;;;;;;;;;;;;5.92;54.79;95422.00;7375699;19;19943;-83
2023/01/17 11:37:30;;;;;;;;;;;;;;;6.17;54.23;95407.50;7373113;19;19922;-82
2023/01/17 11:40:07;;;;;;;;;;;;;;;6.20;54.04;95404.47;7377856;19;19923;-83
2023/01/17 11:42:34;;;;;;;;;;;;;;;5.95;53.38;95402.44;7373461;19;19923;-82
2023/01/17 11:45:20;;;;;;;;;;;;;;;5.77;53.23;95407.44;7376720;19;19919;-83
2023/01/17 11:47:46;;;;;;;;;;;;;;;5.78;53.28;95407.22;7376344;19;19922;-82
2023/01/17 11:50:23;;;;;;;;;;;;;;;5.66;53.33;95422.72;7375575;19;19922;-83
2023/01/17 11:52:50;;;;;;;;;;;;;;;5.87;52.82;95413.91;7374774;19;19943;-82
2023/01/17 11:55:16;;;;;;;;;;;;;;;5.96;52.68;95405.88;7379382;19;19922;-82
2023/01/17 11:57:47;;;;;;;;;;;;;;;5.83;52.31;95399.56;7381242;19;20360;-82
2023/01/17 12:00:22;;;;;;;;;;;;;;;6.03;55.15;95401.41;7380887;19;19919;-82
2023/01/17 12:03:08;;;;;;;;;;;;;;;6.00;50.87;95386.09;7385686;19;20364;-83
2023/01/17 12:05:52;;;;;;;;;;;;;;;6.05;54.40;95383.66;7380610;19;19931;-83
2023/01/17 12:08:25;;;;;;;;;;;;;;;6.13;49.67;95360.69;7378590;19;19918;-83
2023/01/17 12:10:52;;;;;;;;;;;;;;;6.12;52.99;95366.91;7385326;19;19923;-83
2023/01/17 12:16:37;;;;;;;;;;;;;;;5.78;52.32;95346.06;7379481;19;19918;-82
2023/01/17 12:19:07;;;;;;;;;;;;;;;5.59;51.77;95352.91;7389776;19;19939;-81
2023/01/17 12:21:52;;;;;;;;;;;;;;;5.90;53.96;95354.97;7385594;19;19911;-83
2023/01/17 12:24:37;;;;;;;;;;;;;;;5.85;52.58;95345.06;7385860;19;19910;-83
2023/01/17 12:27:22;;;;;;;;;;;;;;;5.83;51.81;95347.09;7392212;19;19974;-82
2023/01/17 12:30:09;;;;;;;;;;;;;;;5.93;53.91;95344.06;7399564;19;19935;-83
2023/01/17 12:32:57;;;;;;;;;;;;;;;6.05;51.41;95339.06;7398408;19;19914;-82
2023/01/17 12:35:31;;;;;;;;;;;;;;;6.08;53.79;95322.91;7397584;19;21416;-82
2023/01/17 12:38:00;;;;;;;;;;;;;;;5.84;52.53;95314.59;7406159;19;19911;-82
2023/01/17 12:40:33;;;;;;;;;;;;;;;5.65;52.69;95318.00;7409860;19;19950;-82
2023/01/17 12:43:18;;;;;;;;;;;;;;;5.99;53.65;95314.44;7400954;19;19922;-83
2023/01/17 12:45:46;;;;;;;;;;;;;;;6.05;52.70;95316.22;7413072;19;19959;-84
2023/01/17 12:48:17;;;;;;;;;;;;;;;6.14;51.45;95309.78;7392841;19;19911;-84
2023/01/17 12:50:49;;;;;;;;;;;;;;;5.97;53.12;95310.41;7407105;19;20304;-83
2023/01/17 12:53:17;;;;;;;;;;;;;;;5.82;52.67;95300.06;7405605;19;19982;-82
2023/01/17 12:55:46;;;;;;;;;;;;;;;5.87;53.34;95293.22;7401419;19;19911;-84
2023/01/17 12:58:15;;;;;;;;;;;;;;;5.97;54.59;95292.81;7397513;19;19939;-84
2023/01/17 13:00:45;;;;;;;;;;;;;;;5.87;52.18;95285.34;7388679;19;19928;-83
2023/01/17 13:03:17;;;;;;;;;;;;;;;5.99;53.31;95279.50;7384755;19;19929;-84
2023/01/17 13:05:47;;;;;;;;;;;;;;;5.96;52.31;95275.47;7391725;19;19933;-84
2023/01/17 13:08:18;;;;;;;;;;;;;;;5.75;53.05;95273.84;7389552;19;19942;-84
2023/01/17 13:10:55;;;;;;;;;;;;;;;5.98;52.51;95273.47;7396336;19;19914;-82
2023/01/17 13:16:20;;;;;;;;;;;;;;;6.01;54.33;95262.56;7413901;19;19922;-83
2023/01/17 13:19:51;;;;;;;;;;;;;;;5.93;52.27;95266.19;7390012;19;19914;-82
2023/01/17 13:22:18;;;;;;;;;;;;;;;5.75;52.28;95262.53;7402759;19;19954;-81
2023/01/17 13:24:47;;;;;;;;;;;;;;;5.72;50.76;95259.31;7418273;19;19922;-80
2023/01/17 13:30:32;;;;;;;;;;;;;;;5.92;53.17;95264.56;7420165;19;20002;-86
2023/01/17 13:33:20;;;;;;;;;;;;;;;6.02;51.77;95258.09;7418742;19;19957;-83
2023/01/17 13:35:58;;;;;;;;;;;;;;;6.01;53.55;95257.31;7424741;19;19914;-82
2023/01/17 13:38:35;;;;;;;;;;;;;;;5.88;53.01;95254.66;7394545;19;19936;-81
2023/01/17 13:41:07;;;;;;;;;;;;;;;5.86;52.60;95252.25;7400655;19;19914;-82
2023/01/17 13:43:38;;;;;;;;;;;;;;;5.86;51.46;95247.00;7409768;19;19918;-81
2023/01/17 13:46:08;;;;;;;;;;;;;;;5.53;50.96;95249.63;7397814;19;19922;-82
2023/01/17 13:48:39;;;;;;;;;;;;;;;5.61;52.07;95243.34;7388711;19;19939;-81
2023/01/17 13:51:07;;;;;;;;;;;;;;;5.71;53.26;95243.75;7392845;19;19914;-82
2023/01/17 13:53:34;;;;;;;;;;;;;;;5.66;52.53;95243.56;7388536;19;19926;-81
2023/01/17 13:56:04;;;;;;;;;;;;;;;5.42;53.01;95239.72;7390092;19;20257;-81
2023/01/17 13:58:47;;;;;;;;;;;;;;;5.44;52.25;95248.19;7381799;19;19923;-82
2023/01/17 14:01:20;;;;;;;;;;;;;;;5.57;50.95;95231.66;7384464;19;19919;-81
2023/01/17 14:03:50;;;;;;;;;;;;;;;5.57;54.36;95247.41;7395469;19;20364;-81
2023/01/17 14:06:39;;;;;;;;;;;;;;;5.52;52.75;95244.56;7395168;19;19914;-82
2023/01/17 14:09:15;;;;;;;;;;;;;;;5.60;50.95;95253.03;7388564;19;19914;-81
2023/01/17 14:12:00;;;;;;;;;;;;;;;5.68;53.93;95252.03;7388765;19;19914;-81
2023/01/17 14:14:39;;;;;;;;;;;;;;;5.56;53.67;95264.97;7384840;19;20349;-82
2023/01/17 14:17:24;;;;;;;;;;;;;;;5.47;53.29;95258.28;7377790;19;19915;-82
2023/01/17 14:19:56;;;;;;;;;;;;;;;5.40;52.13;95270.59;7380569;19;19930;-81
2023/01/17 14:22:23;;;;;;;;;;;;;;;5.47;52.46;95260.91;7382887;19;19915;-81
2023/01/17 14:25:00;;;;;;;;;;;;;;;5.33;53.14;95275.00;7382955;19;20018;-83
2023/01/17 14:27:28;;;;;;;;;;;;;;;5.44;53.44;95267.34;7381433;19;19978;-82
2023/01/17 14:29:58;;;;;;;;;;;;;;;5.24;51.02;95272.56;7384124;19;19918;-82
2023/01/17 14:32:32;;;;;;;;;;;;;;;5.33;53.04;95269.75;7378692;19;19919;-81
2023/01/17 14:35:08;;;;;;;;;;;;;;;5.26;52.49;95265.28;7383062;19;19919;-83
2023/01/17 14:37:34;;;;;;;;;;;;;;;5.25;52.92;95273.38;7379832;19;19989;-82
2023/01/17 14:40:01;;;;;;;;;;;;;;;5.08;50.71;95265.06;7384634;19;21504;-81